Monday, January 21, 2019, 5:48 PM EST
Back to Local

KLOM, Philadelphia, Wings Field Airport

Location: Blue Bell, PA, United States Lat: 40.138
Local Time: 5:48 PM EST (22:48 GMT) Lon: -75.265
Time Zone: US/Eastern Elev: 301 ft

Show me the last for .
Show Coded

Time T Td Feel RH Dir Speed Gust Alt SLP Vis Weather Sky Remarks
2019-01-21 17:15 16 -8 -1 33 310° 13 20 30.29 - 10 CLR None
2019-01-21 16:55 16 -8 -2 33 290° 6 21 30.28 - 10 CLR None
2019-01-21 16:35 18 -8 -1 31 310° 15 26 30.27 - 10 CLR None
2019-01-21 16:15 18 -8 -2 31 320° 13 30 30.26 - 10 CLR None
2019-01-21 15:55 18 -8 0 31 300° 16 24 30.25 - 10 CLR None
2019-01-21 15:35 18 -8 0 31 290° 13 24 30.24 - 10 CLR None
2019-01-21 15:15 18 -8 -1 31 310° 17 28 30.23 - 10 CLR None
2019-01-21 14:55 18 -8 -1 31 290° 13 28 30.23 - 10 CLR None
2019-01-21 14:35 16 -8 -4 33 290° 13 28 30.22 - 10 CLR None
2019-01-21 14:15 16 -8 -4 33 310° 15 29 30.22 - 10 CLR None
2019-01-21 13:55 14 -8 -5 36 290° 14 23 30.21 - 10 CLR None
2019-01-21 13:35 16 -6 -2 37 290° 12 22 30.21 - 10 CLR None
2019-01-21 13:15 14 -6 -6 40 310° 14 26 30.21 - 10 CLR None
2019-01-21 12:55 14 -6 -7 40 290° 17 29 30.21 - 10 CLR None
2019-01-21 12:35 12 -8 -9 39 300° 13 28 30.21 - 10 SCT050 None
2019-01-21 12:15 12 -8 -9 39 300° 14 28 30.20 - 10 SCT050 None
2019-01-21 11:55 12 -6 -8 43 300° 14 25 30.20 - 10 CLR None
2019-01-21 11:35 12 -8 -8 39 300° 17 25 30.20 - 10 CLR None
2019-01-21 11:15 12 -8 -8 39 300° 13 26 30.19 - 10 CLR None
2019-01-21 10:55 12 -8 -8 39 300° 16 24 30.19 - 10 CLR None
2019-01-21 10:35 10 -8 -11 43 290° 18 29 30.18 - 10 SCT110 None
2019-01-21 10:15 10 -8 -10 43 300° 16 25 30.17 - 10 SCT095 SCT120 None
2019-01-21 09:55 10 -8 -11 43 300° 13 26 30.16 - 10 CLR None
2019-01-21 09:35 10 -8 -11 43 300° 17 26 30.15 - 10 SCT048 None
2019-01-21 09:15 9 -8 -16 46 310° 15 36 30.13 - 10 CLR None
2019-01-21 08:55 9 -8 -16 46 310° 22 36 30.12 - 10 CLR None
2019-01-21 08:35 9 -8 -14 46 310° 15 31 30.11 - 10 CLR None
2019-01-21 08:15 9 -8 -12 46 290° 10 24 30.09 - 10 SCT045 None
2019-01-21 07:55 9 -6 -13 50 300° 15 26 30.09 - 10 SCT045 None
2019-01-21 07:35 9 -6 -11 50 290° 9 20 30.08 - 10 CLR None
2019-01-21 07:15 9 -8 -13 46 290° 13 26 30.07 - 10 CLR None
2019-01-21 06:55 9 -8 -11 46 300° 13 22 30.05 - 10 CLR None
2019-01-21 06:35 9 -6 -13 50 290° 13 25 30.04 - 10 CLR None
2019-01-21 06:15 9 -8 -11 46 290° 13 22 30.03 - 10 CLR None
2019-01-21 05:55 9 -6 -13 50 280° 10 25 30.03 - 10 CLR None
2019-01-21 05:35 9 -6 -12 50 290° 15 24 30.02 - 10 CLR None
2019-01-21 05:15 9 -6 -13 50 300° 16 25 30.01 - 10 CLR None
2019-01-21 04:55 9 -6 -13 50 300° 15 26 30.01 - 10 CLR None
2019-01-21 04:35 9 -6 -12 50 300° 15 24 30.00 - 10 CLR None
2019-01-21 04:15 9 -6 -13 50 300° 8 25 29.99 - 10 CLR None
2019-01-21 03:55 10 -6 -10 46 300° 13 23 29.98 - 10 CLR None
2019-01-21 03:35 10 -4 -11 51 290° 14 26 29.97 - 10 CLR None
2019-01-21 03:15 10 -4 -11 51 300° 9 28 29.97 - 10 CLR None
2019-01-21 02:55 10 -4 -11 51 310° 14 28 29.96 - 10 CLR None
2019-01-21 02:35 10 -4 -11 51 290° 15 29 29.96 - 10 CLR None
2019-01-21 02:15 12 -2 -7 51 290° 13 23 29.95 - 10 CLR None
2019-01-21 01:55 12 -2 -7 51 310° 13 22 29.95 - 10 SCT043 None
2019-01-21 01:35 12 -2 -7 51 300° 12 23 29.93 - 10 CLR None
2019-01-21 01:15 12 -2 -8 51 310° 9 24 29.92 - 10 CLR None
2019-01-21 00:55 12 0 -8 56 290° 14 26 29.91 - 10 CLR None
2019-01-21 00:35 14 0 -5 51 290° 14 23 29.90 - 10 CLR None
2019-01-21 00:15 14 1 -3 56 290° 10 20 29.89 - 10 CLR None
2019-01-20 23:55 14 1 -4 56 310° 12 22 29.89 - 10 SCT042 None
2019-01-20 23:35 14 1 -5 56 300° 15 23 29.87 - 10 SCT040 SCT046 None
2019-01-20 23:15 16 1 -2 52 300° 17 23 29.87 - 10 BKN040 BKN046 None
2019-01-20 22:55 16 3 -1 56 310° 9 20 29.85 - 10 SCT040 SCT046 None
2019-01-20 22:35 18 3 0 52 320° 13 22 29.85 - 10 BKN042 None
2019-01-20 22:15 18 3 -2 52 320° 14 30 29.84 - 10 SCT039 SCT045 None
2019-01-20 21:55 18 3 -2 52 300° 12 29 29.83 - 10 SCT039 None
2019-01-20 21:35 18 3 -1 52 310° 12 28 29.81 - 10 BKN039 None
2019-01-20 21:15 19 5 1 52 300° 10 30 29.80 - 10 OVC039 None
2019-01-20 20:55 19 7 1 57 310° 15 30 29.78 - 10 OVC037 None
2019-01-20 20:35 19 9 3 62 310° 10 22 29.77 - 10 BKN039 None
2019-01-20 20:15 19 9 1 62 330° 13 30 29.76 - 10 BKN037 None
2019-01-20 19:55 21 9 3 57 300° 18 31 29.76 - 10 OVC037 None
2019-01-20 19:35 21 9 4 57 310° 13 25 29.75 - 10 OVC035 None
2019-01-20 19:15 21 10 5 62 310° 12 23 29.74 - 10 OVC033 None
2019-01-20 18:55 23 12 7 62 310° 14 24 29.73 - 10 OVC031 None
2019-01-20 18:35 23 12 14 62 330° 8 - 29.71 - 10 OVC033 None
2019-01-20 18:15 23 12 8 62 310° 14 21 29.70 - 10 OVC035 None
2019-01-20 17:55 23 12 8 62 320° 10 21 29.68 - 10 BKN035 None

Support USWX by starting your Amazon purchase here.